LNG Aquarius — V7BW6 — position and weather

sailwx.info

Track history (hours):
 
Tides and Currents Weather Stations Pressure Air Temp Water Temp Dewpoint Dewpoint Depression Visibility Wind Speed Wind Dir Waves Ship Positions

LNG Aquarius

Last reported at 2015-Feb-01 02:32 UTC. Time now 2015-Mar-06 20:07 UTC.
Position S 29°21' E 031°48'.
Warning: this ship's position is 33 days out of date.

Type: Tanker. MMSI: 538001385.

Date/timePositionNaut miles runAvg speedWind from/ knotsBaromVisibWave heightAir tempDewpointWater temp
2015-Feb-01 02:32S 29°21' E 031°48'9 9.4
2015-Feb-01 01:33S 29°27' E 031°40'10 9.6
2015-Feb-01 00:33S 29°33' E 031°31'9 9.4
2015-Jan-31 23:33S 29°40' E 031°23'9 9.4
2015-Jan-31 22:33S 29°46' E 031°15'6 6.0
2015-Jan-31 21:33S 29°49' E 031°09'2 2.1
2015-Jan-31 20:33S 29°51' E 031°09'1 0.9
2015-Jan-31 19:33S 29°52' E 031°08'1 1.2
2015-Jan-31 18:33S 29°51' E 031°09'0 0.4
2015-Jan-31 17:33S 29°51' E 031°08'1 1.3
2015-Jan-31 16:33S 29°51' E 031°10'1 1.3
2015-Jan-31 15:33S 29°52' E 031°09'2 2.0
2015-Jan-31 14:33S 29°50' E 031°10'2 1.9
2015-Jan-31 13:33S 29°52' E 031°09'1 1.0
2015-Jan-31 12:33S 29°52' E 031°10'7 6.9
2015-Jan-31 11:33S 29°59' E 031°10'1010.3
2015-Jan-31 10:33S 30°09' E 031°05'1110.0
2015-Jan-31 09:30S 30°18' E 030°59'238 5.3
2015-Jan-29 12:22S 33°15' E 027°52'30 7.7
2015-Jan-29 08:29S 33°33' E 027°24'  
Track history (hours):
 
Tides and Currents Weather Stations Pressure Air Temp Water Temp Dewpoint Dewpoint Depression Visibility Wind Speed Wind Dir Waves Ship Positions

LNG Aquarius

Last reported at 2015-Feb-01 02:32 UTC. Time now 2015-Mar-06 20:07 UTC.
Position S 29°21' E 031°48'.
Warning: this ship's position is 33 days out of date.

Type: Tanker. MMSI: 538001385.

Date/timePositionNaut miles runAvg speedWind from/ knotsBaromVisibWave heightAir tempDewpointWater temp
2015-Feb-01 02:32S 29°21' E 031°48'9 9.4
2015-Feb-01 01:33S 29°27' E 031°40'10 9.6
2015-Feb-01 00:33S 29°33' E 031°31'9 9.4
2015-Jan-31 23:33S 29°40' E 031°23'9 9.4
2015-Jan-31 22:33S 29°46' E 031°15'6 6.0
2015-Jan-31 21:33S 29°49' E 031°09'2 2.1
2015-Jan-31 20:33S 29°51' E 031°09'1 0.9
2015-Jan-31 19:33S 29°52' E 031°08'1 1.2
2015-Jan-31 18:33S 29°51' E 031°09'0 0.4
2015-Jan-31 17:33S 29°51' E 031°08'1 1.3
2015-Jan-31 16:33S 29°51' E 031°10'1 1.3
2015-Jan-31 15:33S 29°52' E 031°09'2 2.0
2015-Jan-31 14:33S 29°50' E 031°10'2 1.9
2015-Jan-31 13:33S 29°52' E 031°09'1 1.0
2015-Jan-31 12:33S 29°52' E 031°10'7 6.9
2015-Jan-31 11:33S 29°59' E 031°10'1010.3
2015-Jan-31 10:33S 30°09' E 031°05'1110.0
2015-Jan-31 09:30S 30°18' E 030°59'238 5.3
2015-Jan-29 12:22S 33°15' E 027°52'30 7.7
2015-Jan-29 08:29S 33°33' E 027°24'  

Dump ship's entire track history